Time;durP1;ratioP1;P1;durP2;ratioP2;P2;SDS_P1;SDS_P2;PMS_P1;PMS_P2;Temp;Humidity;BMP_temperature;BMP_pressure;BME280_temperature;BME280_humidity;BME280_pressure;Samples;Min_cycle;Max_cycle;Signal;HPM_P1;HPM_P2
2021/05/24 07:31:21;;;;;;;1.90;0.60;;;;;;;;;;5110180;27;20803;-76
2021/05/24 07:33:47;;;;;;;7.25;1.20;;;;;;;;;;5095702;28;20257;-76
2021/05/24 07:36:13;;;;;;;2.63;0.57;;;;;;;;;;5097716;28;20427;-75
2021/05/24 07:38:39;;;;;;;4.72;0.80;;;;;;;;;;5094325;28;20030;-77
2021/05/24 07:41:05;;;;;;;7.10;0.73;;;;;;;;;;5096929;28;20032;-75
2021/05/24 07:43:31;;;;;;;2.05;0.50;;;;;;;;;;5094736;28;20023;-75
2021/05/24 07:45:57;;;;;;;2.05;0.80;;;;;;;;;;5098820;28;20154;-75
2021/05/24 07:48:23;;;;;;;2.97;0.73;;;;;;;;;;5098066;28;20840;-76
2021/05/24 07:50:49;;;;;;;1.92;0.77;;;;;;;;;;5098597;28;20472;-75
2021/05/24 07:53:15;;;;;;;2.50;1.00;;;;;;;;;;5097223;28;20031;-76
2021/05/24 07:55:41;;;;;;;1.90;0.75;;;;;;;;;;5097132;28;20012;-75
2021/05/24 07:58:07;;;;;;;2.20;0.73;;;;;;;;;;5098729;28;20024;-75
2021/05/24 08:00:33;;;;;;;2.63;0.60;;;;;;;;;;5096691;28;20028;-76
2021/05/24 08:02:59;;;;;;;1.52;0.80;;;;;;;;;;5096285;28;20400;-76
2021/05/24 08:05:26;;;;;;;2.70;0.90;;;;;;;;;;5098734;28;20036;-75
2021/05/24 08:07:52;;;;;;;2.50;0.70;;;;;;;;;;5096659;28;20028;-77
2021/05/24 08:10:18;;;;;;;3.08;0.60;;;;;;;;;;5097576;28;20034;-78
2021/05/24 08:12:44;;;;;;;1.38;0.45;;;;;;;;;;5094649;28;20073;-75
2021/05/24 08:15:18;;;;;;;4.80;1.40;;;;;;;;;;5089102;28;20020;-74
2021/05/24 08:17:44;;;;;;;2.50;0.60;;;;;;;;;;5098232;28;20023;-74
2021/05/24 08:20:10;;;;;;;3.78;0.85;;;;;;;;;;5097016;28;20030;-75
2021/05/24 08:22:37;;;;;;;1.38;0.85;;;;;;;;;;5096062;28;20051;-74
2021/05/24 08:25:03;;;;;;;2.58;0.70;;;;;;;;;;5095231;28;20050;-74
2021/05/24 08:27:29;;;;;;;2.65;0.80;;;;;;;;;;5096658;28;20425;-74
2021/05/24 08:29:55;;;;;;;2.35;0.90;;;;;;;;;;5094328;28;20028;-75
2021/05/24 08:32:21;;;;;;;3.85;0.80;;;;;;;;;;5098112;28;20039;-74
2021/05/24 08:34:47;;;;;;;3.25;0.95;;;;;;;;;;5096244;28;20059;-74
2021/05/24 08:37:13;;;;;;;1.42;0.70;;;;;;;;;;5096157;28;20056;-74
2021/05/24 08:39:40;;;;;;;1.08;0.50;;;;;;;;;;5096717;28;20465;-74
2021/05/24 08:42:07;;;;;;;3.10;0.65;;;;;;;;;;5085225;28;20043;-74
2021/05/24 08:44:34;;;;;;;3.75;0.60;;;;;;;;;;5083277;28;20039;-75
2021/05/24 08:47:01;;;;;;;2.30;1.02;;;;;;;;;;5084155;28;20020;-75
2021/05/24 08:49:27;;;;;;;1.55;0.80;;;;;;;;;;5078912;28;20050;-75
2021/05/24 08:51:53;;;;;;;1.50;0.68;;;;;;;;;;5083098;28;20457;-77
2021/05/24 08:54:20;;;;;;;2.88;0.80;;;;;;;;;;5083805;28;20034;-75
2021/05/24 08:56:46;;;;;;;2.30;0.60;;;;;;;;;;5083747;28;21020;-76
2021/05/24 08:59:12;;;;;;;2.25;0.68;;;;;;;;;;5081214;28;20052;-76
2021/05/24 09:01:38;;;;;;;2.72;0.50;;;;;;;;;;5089302;28;20024;-76
2021/05/24 09:04:06;;;;;;;5.55;0.90;;;;;;;;;;5093931;28;20484;-76
2021/05/24 09:06:36;;;;;;;2.45;0.50;;;;;;;;;;5088154;28;20099;-75
2021/05/24 09:09:08;;;;;;;2.28;0.63;;;;;;;;;;5092615;28;20024;-75
2021/05/24 09:11:35;;;;;;;1.65;0.50;;;;;;;;;;5093930;28;20051;-75
2021/05/24 09:14:01;;;;;;;3.58;0.60;;;;;;;;;;5093829;28;20047;-78
2021/05/24 09:16:32;;;;;;;1.38;0.47;;;;;;;;;;5093042;28;20020;-77
2021/05/24 09:19:17;;;;;;;2.15;0.65;;;;;;;;;;5080739;28;20027;-77
2021/05/24 09:21:53;;;;;;;2.03;0.82;;;;;;;;;;5082496;28;20024;-77
2021/05/24 09:24:22;;;;;;;4.03;0.80;;;;;;;;;;5080847;28;20024;-77
2021/05/24 09:26:48;;;;;;;3.33;0.40;;;;;;;;;;5083232;28;20016;-76
2021/05/24 09:29:16;;;;;;;2.13;0.70;;;;;;;;;;5079137;28;20500;-76
2021/05/24 09:31:42;;;;;;;1.98;0.65;;;;;;;;;;5083384;28;20016;-76
2021/05/24 09:34:08;;;;;;;2.40;0.40;;;;;;;;;;5082805;28;20020;-76
2021/05/24 09:36:36;;;;;;;1.90;0.52;;;;;;;;;;5081521;28;20054;-76
2021/05/24 09:39:07;;;;;;;2.83;0.50;;;;;;;;;;5080718;28;20016;-76
2021/05/24 09:41:44;;;;;;;1.20;0.40;;;;;;;;;;5078841;28;20029;-76
2021/05/24 09:44:19;;;;;;;1.02;0.30;;;;;;;;;;5072683;28;20037;-75
2021/05/24 09:46:45;;;;;;;1.90;0.50;;;;;;;;;;5073044;28;20103;-75
2021/05/24 09:49:12;;;;;;;2.20;0.55;;;;;;;;;;5077941;28;20560;-77
2021/05/24 09:51:39;;;;;;;1.02;0.45;;;;;;;;;;5093030;28;20103;-77
2021/05/24 09:54:06;;;;;;;1.45;0.50;;;;;;;;;;5091554;28;20023;-77
2021/05/24 09:56:34;;;;;;;1.20;0.60;;;;;;;;;;5078011;28;20025;-78
2021/05/24 09:59:06;;;;;;;2.15;0.60;;;;;;;;;;5072046;28;20016;-76
2021/05/24 10:01:42;;;;;;;2.65;0.60;;;;;;;;;;5073416;28;20384;-76
2021/05/24 10:04:09;;;;;;;0.95;0.52;;;;;;;;;;5072714;28;20016;-76
2021/05/24 10:06:35;;;;;;;2.45;0.47;;;;;;;;;;5074985;28;20384;-76
2021/05/24 10:09:02;;;;;;;0.65;0.20;;;;;;;;;;5080410;28;20024;-76
2021/05/24 10:11:29;;;;;;;1.63;0.43;;;;;;;;;;5085165;28;20024;-77
2021/05/24 10:13:55;;;;;;;1.05;0.40;;;;;;;;;;5087549;28;20544;-77
2021/05/24 10:16:23;;;;;;;4.20;1.20;;;;;;;;;;5087239;28;20024;-77
2021/05/24 10:18:49;;;;;;;1.75;0.57;;;;;;;;;;5091479;28;20047;-77
2021/05/24 10:21:15;;;;;;;1.58;0.60;;;;;;;;;;5088050;28;20047;-76
2021/05/24 10:23:41;;;;;;;1.17;0.47;;;;;;;;;;5090368;28;20028;-78
2021/05/24 10:26:08;;;;;;;1.45;0.30;;;;;;;;;;5086828;28;20028;-77
2021/05/24 10:28:35;;;;;;;3.30;0.40;;;;;;;;;;5084226;28;20042;-76
2021/05/24 10:31:02;;;;;;;3.50;0.30;;;;;;;;;;5078534;28;20401;-77
2021/05/24 10:33:41;;;;;;;1.90;0.52;;;;;;;;;;5078552;28;20031;-78
2021/05/24 10:36:21;;;;;;;1.27;0.30;;;;;;;;;;5081055;28;20115;-77
2021/05/24 10:39:06;;;;;;;1.40;0.40;;;;;;;;;;5078905;28;20028;-76
2021/05/24 10:41:41;;;;;;;3.03;0.82;;;;;;;;;;5095931;28;20081;-77
2021/05/24 10:44:09;;;;;;;0.70;0.20;;;;;;;;;;5095007;28;20040;-76
2021/05/24 10:46:35;;;;;;;1.08;0.28;;;;;;;;;;5092908;28;20069;-77
2021/05/24 10:49:04;;;;;;;0.68;0.30;;;;;;;;;;5092031;28;20032;-76
2021/05/24 10:51:53;;;;;;;6.40;0.50;;;;;;;;;;5094021;28;20023;-79
2021/05/24 10:54:22;;;;;;;0.30;0.30;;;;;;;;;;5095061;28;20027;-78
2021/05/24 10:57:07;;;;;;;1.60;0.68;;;;;;;;;;5076314;28;20028;-78
2021/05/24 10:59:43;;;;;;;2.30;0.82;;;;;;;;;;5072151;28;20039;-80
2021/05/24 11:02:09;;;;;;;3.30;1.00;;;;;;;;;;5076559;28;20397;-78
2021/05/24 11:04:44;;;;;;;1.05;0.40;;;;;;;;;;5072620;28;20021;-76
2021/05/24 11:07:29;;;;;;;1.35;0.40;;;;;;;;;;5074047;28;20491;-76
2021/05/24 11:10:14;;;;;;;0.70;0.30;;;;;;;;;;5079050;28;20392;-76
2021/05/24 11:12:42;;;;;;;0.85;0.30;;;;;;;;;;5093719;28;20042;-81
2021/05/24 11:15:12;;;;;;;1.88;0.40;;;;;;;;;;5097646;28;20039;-79
2021/05/24 11:17:57;;;;;;;3.10;0.40;;;;;;;;;;5097107;28;20073;-78
2021/05/24 11:20:32;;;;;;;1.27;0.60;;;;;;;;;;5088892;28;20149;-77
2021/05/24 11:23:39;;;;;;;2.88;0.30;;;;;;;;;;5091053;28;20085;-77
2021/05/24 11:26:19;;;;;;;3.42;0.30;;;;;;;;;;5094915;28;20042;-77
2021/05/24 11:28:52;;;;;;;1.55;0.40;;;;;;;;;;5095288;28;20024;-79
2021/05/24 11:31:31;;;;;;;0.38;0.20;;;;;;;;;;5098562;28;20046;-80
2021/05/24 11:33:57;;;;;;;2.03;0.70;;;;;;;;;;5102014;28;20392;-79
2021/05/24 11:36:26;;;;;;;0.77;0.32;;;;;;;;;;5075417;28;20067;-79
2021/05/24 11:39:19;;;;;;;4.20;0.85;;;;;;;;;;5077006;28;20028;-79
2021/05/24 11:41:52;;;;;;;2.38;0.50;;;;;;;;;;5072806;28;20400;-79
2021/05/24 11:44:19;;;;;;;3.20;0.63;;;;;;;;;;5072247;28;20036;-76
2021/05/24 11:46:46;;;;;;;1.52;0.43;;;;;;;;;;5071463;28;20028;-76
2021/05/24 11:49:13;;;;;;;1.55;0.32;;;;;;;;;;5075884;28;20028;-75
2021/05/24 11:51:39;;;;;;;1.40;0.30;;;;;;;;;;5091385;28;20031;-76
2021/05/24 11:54:07;;;;;;;1.98;0.32;;;;;;;;;;5090894;28;20028;-77
2021/05/24 11:56:52;;;;;;;0.73;0.40;;;;;;;;;;5091305;28;20668;-76
2021/05/24 11:59:19;;;;;;;3.83;0.73;;;;;;;;;;5087701;28;20031;-70
2021/05/24 12:01:46;;;;;;;2.17;0.40;;;;;;;;;;5091208;28;20465;-74
2021/05/24 12:04:13;;;;;;;1.05;0.35;;;;;;;;;;5091178;28;20103;-76
2021/05/24 12:06:40;;;;;;;2.63;0.30;;;;;;;;;;5090605;28;20145;-75
2021/05/24 12:09:06;;;;;;;1.90;0.38;;;;;;;;;;5090144;28;20016;-74
2021/05/24 12:11:33;;;;;;;1.67;0.45;;;;;;;;;;5091108;28;20027;-76
2021/05/24 12:14:00;;;;;;;1.60;0.50;;;;;;;;;;5091001;28;20025;-76
2021/05/24 12:16:27;;;;;;;2.35;0.40;;;;;;;;;;5093969;28;20480;-79
2021/05/24 12:18:54;;;;;;;4.57;0.50;;;;;;;;;;5097724;28;20039;-78
2021/05/24 12:21:49;;;;;;;1.38;0.40;;;;;;;;;;5096559;28;20039;-76
2021/05/24 12:24:16;;;;;;;1.40;0.52;;;;;;;;;;5090973;28;20043;-77
2021/05/24 12:26:49;;;;;;;1.05;0.25;;;;;;;;;;5096445;28;20535;-76
2021/05/24 12:29:19;;;;;;;1.20;0.50;;;;;;;;;;5088938;28;20037;-76
2021/05/24 12:31:48;;;;;;;1.38;0.40;;;;;;;;;;5087505;28;20495;-76
2021/05/24 12:34:16;;;;;;;0.82;0.40;;;13.50;99.90;;;;;;5085092;28;20436;-77
2021/05/24 12:36:44;;;;;;;1.98;0.43;;;26.10;54.30;;;;;;5084181;28;20089;-77
2021/05/24 12:39:10;;;;;;;1.25;0.40;;;25.60;53.50;;;;;;5082784;28;20047;-77
2021/05/24 12:41:38;;;;;;;2.53;0.38;;;25.60;53.80;;;;;;5083145;28;20126;-77
2021/05/24 12:44:05;;;;;;;2.28;0.35;;;26.40;52.30;;;;;;5084359;28;20042;-77
2021/05/24 12:46:40;;;;;;;4.80;1.15;;;27.10;51.50;;;;;;5081441;28;20384;-77
2021/05/24 12:49:06;;;;;;;1.92;0.65;;;26.90;51.00;;;;;;5084871;28;20020;-77
2021/05/24 12:51:32;;;;;;;1.30;0.40;;;27.00;51.30;;;;;;5085066;28;20096;-77
2021/05/24 12:54:00;;;;;;;2.13;0.55;;;27.00;50.20;;;;;;5082815;28;20044;-77
2021/05/24 12:56:46;;;;;;;1.02;0.40;;;26.60;50.30;;;;;;5083465;28;20044;-77
2021/05/24 12:59:17;;;;;;;0.70;0.22;;;25.80;51.00;;;;;;5080139;28;20119;-76
2021/05/24 13:01:44;;;;;;;0.85;0.30;;;25.60;50.40;;;;;;5082980;28;20024;-77
2021/05/24 13:04:14;;;;;;;2.60;0.30;;;25.50;50.40;;;;;;5080456;28;20168;-75
2021/05/24 13:06:53;;;;;;;0.80;0.30;;;24.90;49.20;;;;;;5083276;28;20404;-76
2021/05/24 13:09:31;;;;;;;0.52;0.28;;;24.80;48.20;;;;;;5082016;28;20089;-77
2021/05/24 13:12:07;;;;;;;1.48;0.30;;;24.60;48.40;;;;;;5082635;28;20013;-77
2021/05/24 13:14:40;;;;;;;0.45;0.25;;;24.90;47.80;;;;;;5081184;28;20027;-76
